sensor_id;sensor_type;location;lat;lon;timestamp;pressure;altitude;pressure_sealevel;temperature;humidity
40612;BME280;26317;44.894;20.286;2023-11-19T00:01:20;101405.72;;;4.16;87.70
40612;BME280;26317;44.894;20.286;2023-11-19T00:03:55;101421.03;;;4.14;87.77
40612;BME280;26317;44.894;20.286;2023-11-19T00:06:29;101431.25;;;4.11;87.87
40612;BME280;26317;44.894;20.286;2023-11-19T00:09:14;101436.56;;;4.11;87.96
40612;BME280;26317;44.894;20.286;2023-11-19T00:12:00;101447.78;;;4.06;88.09
40612;BME280;26317;44.894;20.286;2023-11-19T00:14:35;101452.28;;;4.06;88.02
40612;BME280;26317;44.894;20.286;2023-11-19T00:17:07;101446.75;;;4.01;88.27
40612;BME280;26317;44.894;20.286;2023-11-19T00:19:45;101453.50;;;3.97;88.16
40612;BME280;26317;44.894;20.286;2023-11-19T00:22:23;101446.56;;;3.83;88.32
40612;BME280;26317;44.894;20.286;2023-11-19T00:25:00;101438.81;;;3.75;88.89
40612;BME280;26317;44.894;20.286;2023-11-19T00:27:45;101428.59;;;3.71;89.43
40612;BME280;26317;44.894;20.286;2023-11-19T00:30:29;101449.44;;;3.75;89.97
40612;BME280;26317;44.894;20.286;2023-11-19T00:33:07;101442.28;;;3.68;89.82
40612;BME280;26317;44.894;20.286;2023-11-19T00:35:43;101432.88;;;3.72;90.12
40612;BME280;26317;44.894;20.286;2023-11-19T00:38:28;101431.66;;;3.68;89.58
40612;BME280;26317;44.894;20.286;2023-11-19T00:41:02;101430.84;;;3.68;90.14
40612;BME280;26317;44.894;20.286;2023-11-19T00:43:43;101426.78;;;3.59;90.16
40612;BME280;26317;44.894;20.286;2023-11-19T00:46:23;101415.34;;;3.58;90.39
40612;BME280;26317;44.894;20.286;2023-11-19T00:49:06;101411.25;;;3.56;90.51
40612;BME280;26317;44.894;20.286;2023-11-19T00:51:44;101425.53;;;3.61;91.15
40612;BME280;26317;44.894;20.286;2023-11-19T00:54:20;101413.09;;;3.68;90.82
40612;BME280;26317;44.894;20.286;2023-11-19T00:56:59;101407.59;;;3.57;91.00
40612;BME280;26317;44.894;20.286;2023-11-19T00:59:51;101419.63;;;3.59;91.03
40612;BME280;26317;44.894;20.286;2023-11-19T01:02:36;101413.72;;;3.57;91.08
40612;BME280;26317;44.894;20.286;2023-11-19T01:05:29;101406.34;;;3.53;90.90
40612;BME280;26317;44.894;20.286;2023-11-19T01:08:20;101404.31;;;3.48;91.08
40612;BME280;26317;44.894;20.286;2023-11-19T01:10:58;101407.38;;;3.52;91.53
40612;BME280;26317;44.894;20.286;2023-11-19T01:13:35;101404.72;;;3.45;91.85
40612;BME280;26317;44.894;20.286;2023-11-19T01:16:25;101410.19;;;3.31;91.96
40612;BME280;26317;44.894;20.286;2023-11-19T01:19:00;101412.25;;;3.29;92.36
40612;BME280;26317;44.894;20.286;2023-11-19T01:21:49;101406.94;;;3.29;92.86
40612;BME280;26317;44.894;20.286;2023-11-19T01:24:26;101405.72;;;3.31;92.72
40612;BME280;26317;44.894;20.286;2023-11-19T01:27:14;101401.22;;;3.32;92.99
40612;BME280;26317;44.894;20.286;2023-11-19T01:29:48;101401.66;;;3.29;93.01
40612;BME280;26317;44.894;20.286;2023-11-19T01:32:37;101403.03;;;3.18;93.22
40612;BME280;26317;44.894;20.286;2023-11-19T01:35:11;101389.75;;;3.05;93.35
40612;BME280;26317;44.894;20.286;2023-11-19T01:38:07;101391.78;;;3.03;93.84
40612;BME280;26317;44.894;20.286;2023-11-19T01:40:46;101408.09;;;3.00;93.71
40612;BME280;26317;44.894;20.286;2023-11-19T01:43:36;101414.19;;;2.94;94.05
40612;BME280;26317;44.894;20.286;2023-11-19T01:46:13;101405.19;;;2.82;94.52
40612;BME280;26317;44.894;20.286;2023-11-19T01:48:57;101403.75;;;2.79;94.73
40612;BME280;26317;44.894;20.286;2023-11-19T01:51:41;101397.88;;;2.84;94.92
40612;BME280;26317;44.894;20.286;2023-11-19T01:54:15;101397.88;;;2.84;94.99
40612;BME280;26317;44.894;20.286;2023-11-19T01:56:59;101395.00;;;2.85;95.13
40612;BME280;26317;44.894;20.286;2023-11-19T01:59:35;101402.94;;;2.78;95.11
40612;BME280;26317;44.894;20.286;2023-11-19T02:02:16;101408.00;;;2.73;95.47
40612;BME280;26317;44.894;20.286;2023-11-19T02:04:58;101416.97;;;2.72;95.51
40612;BME280;26317;44.894;20.286;2023-11-19T02:07:35;101419.38;;;2.67;96.00
40612;BME280;26317;44.894;20.286;2023-11-19T02:10:13;101416.53;;;2.69;95.63
40612;BME280;26317;44.894;20.286;2023-11-19T02:12:58;101404.28;;;2.61;95.74
40612;BME280;26317;44.894;20.286;2023-11-19T02:18:23;101399.41;;;2.58;96.43
40612;BME280;26317;44.894;20.286;2023-11-19T02:23:57;101419.84;;;2.37;97.02
40612;BME280;26317;44.894;20.286;2023-11-19T02:26:43;101402.47;;;2.27;97.48
40612;BME280;26317;44.894;20.286;2023-11-19T02:29:39;101408.59;;;2.28;98.15
40612;BME280;26317;44.894;20.286;2023-11-19T02:32:16;101409.34;;;2.22;98.83
40612;BME280;26317;44.894;20.286;2023-11-19T02:35:00;101408.75;;;2.20;98.66
40612;BME280;26317;44.894;20.286;2023-11-19T02:37:41;101407.97;;;2.26;98.95
40612;BME280;26317;44.894;20.286;2023-11-19T02:40:21;101409.03;;;2.31;98.59
40612;BME280;26317;44.894;20.286;2023-11-19T02:43:11;101410.25;;;2.29;98.53
40612;BME280;26317;44.894;20.286;2023-11-19T02:45:50;101417.78;;;2.32;98.82
40612;BME280;26317;44.894;20.286;2023-11-19T02:48:29;101415.53;;;2.29;98.22
40612;BME280;26317;44.894;20.286;2023-11-19T02:51:12;101412.44;;;2.25;98.76
40612;BME280;26317;44.894;20.286;2023-11-19T02:53:50;101421.44;;;2.31;98.53
40612;BME280;26317;44.894;20.286;2023-11-19T02:56:29;101420.44;;;2.32;98.14
40612;BME280;26317;44.894;20.286;2023-11-19T02:59:10;101401.72;;;2.34;98.31
40612;BME280;26317;44.894;20.286;2023-11-19T03:02:01;101398.44;;;2.31;97.95
40612;BME280;26317;44.894;20.286;2023-11-19T03:04:47;101406.19;;;2.33;97.98
40612;BME280;26317;44.894;20.286;2023-11-19T03:07:33;101412.09;;;2.35;98.01
40612;BME280;26317;44.894;20.286;2023-11-19T03:10:10;101398.25;;;2.33;97.61
40612;BME280;26317;44.894;20.286;2023-11-19T03:12:52;101398.09;;;2.41;97.86
40612;BME280;26317;44.894;20.286;2023-11-19T03:15:33;101391.56;;;2.37;97.55
40612;BME280;26317;44.894;20.286;2023-11-19T03:18:31;101394.81;;;2.39;96.91
40612;BME280;26317;44.894;20.286;2023-11-19T03:21:25;101394.03;;;2.45;96.91
40612;BME280;26317;44.894;20.286;2023-11-19T03:24:01;101393.63;;;2.48;96.68
40612;BME280;26317;44.894;20.286;2023-11-19T03:26:39;101404.06;;;2.56;96.60
40612;BME280;26317;44.894;20.286;2023-11-19T03:29:20;101410.63;;;2.67;96.32
40612;BME280;26317;44.894;20.286;2023-11-19T03:32:07;101410.25;;;2.76;95.33
40612;BME280;26317;44.894;20.286;2023-11-19T03:34:48;101411.28;;;2.82;94.49
40612;BME280;26317;44.894;20.286;2023-11-19T03:37:33;101412.94;;;2.90;93.92
40612;BME280;26317;44.894;20.286;2023-11-19T03:40:11;101411.13;;;2.97;93.25
40612;BME280;26317;44.894;20.286;2023-11-19T03:43:08;101397.50;;;3.00;92.29
40612;BME280;26317;44.894;20.286;2023-11-19T03:45:44;101396.47;;;3.01;92.01
40612;BME280;26317;44.894;20.286;2023-11-19T03:48:19;101389.75;;;3.05;92.41
40612;BME280;26317;44.894;20.286;2023-11-19T03:50:54;101397.09;;;3.03;91.78
40612;BME280;26317;44.894;20.286;2023-11-19T03:53:38;101396.88;;;2.98;92.28
40612;BME280;26317;44.894;20.286;2023-11-19T03:56:27;101400.34;;;2.92;92.58
40612;BME280;26317;44.894;20.286;2023-11-19T03:59:11;101400.28;;;2.78;93.17
40612;BME280;26317;44.894;20.286;2023-11-19T04:01:46;101396.19;;;2.76;93.45
40612;BME280;26317;44.894;20.286;2023-11-19T04:04:31;101390.03;;;2.62;93.59
40612;BME280;26317;44.894;20.286;2023-11-19T04:07:11;101384.53;;;2.64;94.49
40612;BME280;26317;44.894;20.286;2023-11-19T04:09:50;101388.59;;;2.60;94.33
40612;BME280;26317;44.894;20.286;2023-11-19T04:12:21;101399.41;;;2.58;94.01
40612;BME280;26317;44.894;20.286;2023-11-19T04:14:58;101397.34;;;2.54;94.56
40612;BME280;26317;44.894;20.286;2023-11-19T04:17:39;101390.78;;;2.50;94.15
40612;BME280;26317;44.894;20.286;2023-11-19T04:20:16;101386.31;;;2.50;94.67
40612;BME280;26317;44.894;20.286;2023-11-19T04:23:07;101372.69;;;2.53;94.59
40612;BME280;26317;44.894;20.286;2023-11-19T04:25:47;101363.34;;;2.57;94.20
40612;BME280;26317;44.894;20.286;2023-11-19T04:28:25;101367.81;;;2.63;94.72
40612;BME280;26317;44.894;20.286;2023-11-19T04:31:02;101359.50;;;2.66;94.66
40612;BME280;26317;44.894;20.286;2023-11-19T04:33:40;101358.09;;;2.70;94.43
40612;BME280;26317;44.894;20.286;2023-11-19T04:36:18;101358.91;;;2.77;93.94
40612;BME280;26317;44.894;20.286;2023-11-19T04:38:59;101362.19;;;2.80;93.60
40612;BME280;26317;44.894;20.286;2023-11-19T04:41:50;101363.63;;;2.82;92.94
40612;BME280;26317;44.894;20.286;2023-11-19T04:44:25;101345.06;;;2.75;92.65
40612;BME280;26317;44.894;20.286;2023-11-19T04:47:02;101346.69;;;2.76;92.72
40612;BME280;26317;44.894;20.286;2023-11-19T04:49:40;101359.53;;;2.80;92.44
40612;BME280;26317;44.894;20.286;2023-11-19T04:52:16;101359.53;;;2.80;92.17
40612;BME280;26317;44.894;20.286;2023-11-19T04:55:10;101351.78;;;2.78;92.48
40612;BME280;26317;44.894;20.286;2023-11-19T04:57:50;101358.09;;;2.77;92.97
40612;BME280;26317;44.894;20.286;2023-11-19T05:00:32;101338.72;;;2.76;92.60
40612;BME280;26317;44.894;20.286;2023-11-19T05:03:11;101327.72;;;2.73;92.92
40612;BME280;26317;44.894;20.286;2023-11-19T05:05:47;101329.78;;;2.77;92.79
40612;BME280;26317;44.894;20.286;2023-11-19T05:08:33;101329.59;;;2.79;92.88
40612;BME280;26317;44.894;20.286;2023-11-19T05:11:22;101314.50;;;2.86;92.63
40612;BME280;26317;44.894;20.286;2023-11-19T05:14:02;101303.31;;;2.91;91.89
40612;BME280;26317;44.894;20.286;2023-11-19T05:16:41;101310.25;;;2.92;91.89
40612;BME280;26317;44.894;20.286;2023-11-19T05:19:20;101318.41;;;2.97;91.45
40612;BME280;26317;44.894;20.286;2023-11-19T05:21:53;101305.97;;;2.97;91.17
40612;BME280;26317;44.894;20.286;2023-11-19T05:24:31;101318.00;;;3.00;91.18
40612;BME280;26317;44.894;20.286;2023-11-19T05:27:20;101319.63;;;3.01;90.84
40612;BME280;26317;44.894;20.286;2023-11-19T05:29:59;101309.47;;;3.04;90.38
40612;BME280;26317;44.894;20.286;2023-11-19T05:32:41;101304.16;;;3.04;90.28
40612;BME280;26317;44.894;20.286;2023-11-19T05:35:17;101296.41;;;3.03;89.97
40612;BME280;26317;44.894;20.286;2023-11-19T05:37:54;101296.81;;;3.00;89.52
40612;BME280;26317;44.894;20.286;2023-11-19T05:40:39;101296.19;;;2.98;89.93
40612;BME280;26317;44.894;20.286;2023-11-19T05:43:21;101293.75;;;2.96;90.12
40612;BME280;26317;44.894;20.286;2023-11-19T05:45:58;101304.53;;;2.95;89.89
40612;BME280;26317;44.894;20.286;2023-11-19T05:48:46;101299.44;;;2.93;90.07
40612;BME280;26317;44.894;20.286;2023-11-19T05:51:25;101297.59;;;2.94;90.26
40612;BME280;26317;44.894;20.286;2023-11-19T05:54:01;101293.13;;;2.94;90.47
40612;BME280;26317;44.894;20.286;2023-11-19T05:56:52;101293.94;;;2.95;90.39
40612;BME280;26317;44.894;20.286;2023-11-19T05:59:35;101301.06;;;2.94;89.86
40612;BME280;26317;44.894;20.286;2023-11-19T06:02:15;101315.34;;;2.87;89.86
40612;BME280;26317;44.894;20.286;2023-11-19T06:05:02;101321.44;;;2.94;90.08
40612;BME280;26317;44.894;20.286;2023-11-19T06:07:44;101315.56;;;2.92;90.10
40612;BME280;26317;44.894;20.286;2023-11-19T06:10:24;101322.06;;;2.89;90.22
40612;BME280;26317;44.894;20.286;2023-11-19T06:13:11;101317.56;;;2.90;90.51
40612;BME280;26317;44.894;20.286;2023-11-19T06:16:14;101309.03;;;2.88;91.10
40612;BME280;26317;44.894;20.286;2023-11-19T06:18:48;101316.38;;;2.92;90.98
40612;BME280;26317;44.894;20.286;2023-11-19T06:21:27;101326.75;;;2.94;90.74
40612;BME280;26317;44.894;20.286;2023-11-19T06:24:01;101332.69;;;2.96;91.11
40612;BME280;26317;44.894;20.286;2023-11-19T06:26:44;101337.16;;;2.95;90.75
40612;BME280;26317;44.894;20.286;2023-11-19T06:29:20;101351.59;;;2.93;91.11
40612;BME280;26317;44.894;20.286;2023-11-19T06:32:06;101363.66;;;2.95;90.75
40612;BME280;26317;44.894;20.286;2023-11-19T06:34:44;101359.56;;;2.93;90.91
40612;BME280;26317;44.894;20.286;2023-11-19T06:37:24;101368.91;;;2.89;91.52
40612;BME280;26317;44.894;20.286;2023-11-19T06:39:58;101364.66;;;2.94;92.24
40612;BME280;26317;44.894;20.286;2023-11-19T06:42:41;101364.47;;;2.96;91.82
40612;BME280;26317;44.894;20.286;2023-11-19T06:45:19;101351.78;;;2.85;92.09
40612;BME280;26317;44.894;20.286;2023-11-19T06:48:04;101364.88;;;2.99;91.52
40612;BME280;26317;44.894;20.286;2023-11-19T06:50:54;101344.50;;;3.00;92.09
40612;BME280;26317;44.894;20.286;2023-11-19T06:53:32;101346.38;;;3.12;91.92
40612;BME280;26317;44.894;20.286;2023-11-19T06:56:33;101351.06;;;3.17;90.97
40612;BME280;26317;44.894;20.286;2023-11-19T06:59:06;101340.47;;;3.17;92.10
40612;BME280;26317;44.894;20.286;2023-11-19T07:01:38;101341.06;;;3.19;92.29
40612;BME280;26317;44.894;20.286;2023-11-19T07:04:27;101354.53;;;3.24;92.24
40612;BME280;26317;44.894;20.286;2023-11-19T07:07:02;101356.34;;;3.30;92.56
40612;BME280;26317;44.894;20.286;2023-11-19T07:09:41;101333.75;;;3.21;92.46
40612;BME280;26317;44.894;20.286;2023-11-19T07:12:21;101359.25;;;3.42;92.98
40612;BME280;26317;44.894;20.286;2023-11-19T07:15:00;101358.00;;;3.44;92.95
40612;BME280;26317;44.894;20.286;2023-11-19T07:17:36;101361.28;;;3.46;92.85
40612;BME280;26317;44.894;20.286;2023-11-19T07:20:35;101358.84;;;3.58;92.60
40612;BME280;26317;44.894;20.286;2023-11-19T07:23:14;101360.06;;;3.62;92.05
40612;BME280;26317;44.894;20.286;2023-11-19T07:25:51;101361.69;;;3.63;92.26
40612;BME280;26317;44.894;20.286;2023-11-19T07:28:35;101354.31;;;3.71;92.60
40612;BME280;26317;44.894;20.286;2023-11-19T07:31:12;101352.28;;;3.80;92.44
40612;BME280;26317;44.894;20.286;2023-11-19T07:33:51;101346.34;;;3.85;92.87
40612;BME280;26317;44.894;20.286;2023-11-19T07:36:38;101341.88;;;3.92;92.69
40612;BME280;26317;44.894;20.286;2023-11-19T07:39:12;101343.69;;;4.04;92.01
40612;BME280;26317;44.894;20.286;2023-11-19T07:41:47;101348.97;;;4.11;92.05
40612;BME280;26317;44.894;20.286;2023-11-19T07:44:35;101351.59;;;4.17;91.43
40612;BME280;26317;44.894;20.286;2023-11-19T07:47:15;101357.47;;;4.26;91.06
40612;BME280;26317;44.894;20.286;2023-11-19T07:50:01;101356.22;;;4.35;89.28
40612;BME280;26317;44.894;20.286;2023-11-19T07:52:53;101350.72;;;4.37;89.14
40612;BME280;26317;44.894;20.286;2023-11-19T07:55:35;101338.66;;;4.41;88.96
40612;BME280;26317;44.894;20.286;2023-11-19T07:58:13;101337.16;;;4.51;89.65
40612;BME280;26317;44.894;20.286;2023-11-19T08:00:58;101332.47;;;4.53;89.58
40612;BME280;26317;44.894;20.286;2023-11-19T08:03:38;101321.47;;;4.50;89.18
40612;BME280;26317;44.894;20.286;2023-11-19T08:06:28;101335.47;;;4.63;88.58
40612;BME280;26317;44.894;20.286;2023-11-19T08:09:05;101334.63;;;4.70;89.22
40612;BME280;26317;44.894;20.286;2023-11-19T08:11:48;101343.63;;;4.75;88.98
40612;BME280;26317;44.894;20.286;2023-11-19T08:14:21;101347.03;;;4.82;88.80
40612;BME280;26317;44.894;20.286;2023-11-19T08:17:01;101340.88;;;4.88;88.52
40612;BME280;26317;44.894;20.286;2023-11-19T08:19:48;101327.97;;;4.92;88.33
40612;BME280;26317;44.894;20.286;2023-11-19T08:22:45;101326.16;;;4.92;88.41
40612;BME280;26317;44.894;20.286;2023-11-19T08:25:31;101328.31;;;5.02;88.76
40612;BME280;26317;44.894;20.286;2023-11-19T08:28:09;101322.09;;;5.15;87.65
40612;BME280;26317;44.894;20.286;2023-11-19T08:30:52;101330.25;;;5.20;87.34
40612;BME280;26317;44.894;20.286;2023-11-19T08:33:31;101321.78;;;5.29;87.12
40612;BME280;26317;44.894;20.286;2023-11-19T08:36:18;101323.28;;;5.43;86.61
40612;BME280;26317;44.894;20.286;2023-11-19T08:39:00;101319.16;;;5.47;85.64
40612;BME280;26317;44.894;20.286;2023-11-19T08:41:48;101300.72;;;5.52;86.46
40612;BME280;26317;44.894;20.286;2023-11-19T08:44:27;101278.25;;;5.48;85.63
40612;BME280;26317;44.894;20.286;2023-11-19T08:47:02;101269.41;;;5.54;84.42
40612;BME280;26317;44.894;20.286;2023-11-19T08:49:40;101278.50;;;5.65;84.01
40612;BME280;26317;44.894;20.286;2023-11-19T08:52:31;101275.47;;;5.62;84.89
40612;BME280;26317;44.894;20.286;2023-11-19T08:55:15;101285.81;;;5.70;84.59
40612;BME280;26317;44.894;20.286;2023-11-19T08:58:02;101297.84;;;5.72;83.32
40612;BME280;26317;44.894;20.286;2023-11-19T09:00:37;101300.75;;;5.71;82.78
40612;BME280;26317;44.894;20.286;2023-11-19T09:03:23;101299.66;;;5.78;83.45
40612;BME280;26317;44.894;20.286;2023-11-19T09:05:57;101306.09;;;5.89;83.12
40612;BME280;26317;44.894;20.286;2023-11-19T09:08:33;101296.81;;;5.98;82.29
40612;BME280;26317;44.894;20.286;2023-11-19T09:11:09;101301.78;;;6.13;81.70
40612;BME280;26317;44.894;20.286;2023-11-19T09:14:02;101298.06;;;6.14;81.17
40612;BME280;26317;44.894;20.286;2023-11-19T09:16:42;101295.91;;;6.22;81.57
40612;BME280;26317;44.894;20.286;2023-11-19T09:19:19;101299.59;;;6.39;80.56
40612;BME280;26317;44.894;20.286;2023-11-19T09:21:55;101278.94;;;6.35;80.43
40612;BME280;26317;44.894;20.286;2023-11-19T09:24:30;101282.25;;;6.48;80.04
40612;BME280;26317;44.894;20.286;2023-11-19T09:27:20;101276.16;;;6.60;79.78
40612;BME280;26317;44.894;20.286;2023-11-19T09:29:58;101287.56;;;6.67;78.73
40612;BME280;26317;44.894;20.286;2023-11-19T09:32:44;101293.59;;;6.74;79.48
40612;BME280;26317;44.894;20.286;2023-11-19T09:35:18;101283.22;;;6.84;78.30
40612;BME280;26317;44.894;20.286;2023-11-19T09:38:04;101277.41;;;6.87;77.82
40612;BME280;26317;44.894;20.286;2023-11-19T09:40:43;101278.72;;;6.96;77.18
40612;BME280;26317;44.894;20.286;2023-11-19T09:43:30;101272.47;;;7.02;77.15
40612;BME280;26317;44.894;20.286;2023-11-19T09:46:10;101258.91;;;7.04;75.11
40612;BME280;26317;44.894;20.286;2023-11-19T09:49:03;101265.28;;;7.14;77.29
40612;BME280;26317;44.894;20.286;2023-11-19T09:51:44;101248.72;;;7.12;76.73
40612;BME280;26317;44.894;20.286;2023-11-19T09:54:27;101266.00;;;7.21;76.96
40612;BME280;26317;44.894;20.286;2023-11-19T09:57:07;101266.59;;;7.23;75.98
40612;BME280;26317;44.894;20.286;2023-11-19T09:59:48;101259.63;;;7.22;77.29
40612;BME280;26317;44.894;20.286;2023-11-19T10:02:31;101266.94;;;7.27;76.74
40612;BME280;26317;44.894;20.286;2023-11-19T10:05:22;101256.50;;;7.25;76.72
40612;BME280;26317;44.894;20.286;2023-11-19T10:08:17;101245.97;;;7.30;75.17
40612;BME280;26317;44.894;20.286;2023-11-19T10:10:50;101232.25;;;7.27;76.14
40612;BME280;26317;44.894;20.286;2023-11-19T10:13:36;101221.34;;;7.28;75.75
40612;BME280;26317;44.894;20.286;2023-11-19T10:16:20;101207.88;;;7.23;75.50
40612;BME280;26317;44.894;20.286;2023-11-19T10:18:58;101201.50;;;7.24;75.13
40612;BME280;26317;44.894;20.286;2023-11-19T10:21:35;101189.47;;;7.22;75.39
40612;BME280;26317;44.894;20.286;2023-11-19T10:24:32;101183.88;;;7.35;74.90
40612;BME280;26317;44.894;20.286;2023-11-19T10:27:16;101180.50;;;7.39;73.30
40612;BME280;26317;44.894;20.286;2023-11-19T10:29:54;101174.25;;;7.46;72.47
40612;BME280;26317;44.894;20.286;2023-11-19T10:32:41;101156.00;;;7.54;73.87
40612;BME280;26317;44.894;20.286;2023-11-19T10:35:28;101137.00;;;7.51;72.46
40612;BME280;26317;44.894;20.286;2023-11-19T10:38:13;101145.06;;;7.67;71.78
40612;BME280;26317;44.894;20.286;2023-11-19T10:40:55;101122.09;;;7.66;69.84
40612;BME280;26317;44.894;20.286;2023-11-19T10:43:31;101139.47;;;7.80;68.39
40612;BME280;26317;44.894;20.286;2023-11-19T10:46:23;101135.13;;;7.91;70.80
40612;BME280;26317;44.894;20.286;2023-11-19T10:49:11;101146.00;;;8.01;70.04
40612;BME280;26317;44.894;20.286;2023-11-19T10:52:06;101144.38;;;8.00;68.97
40612;BME280;26317;44.894;20.286;2023-11-19T10:54:44;101147.22;;;8.10;68.87
40612;BME280;26317;44.894;20.286;2023-11-19T10:57:28;101149.44;;;8.13;69.32
40612;BME280;26317;44.894;20.286;2023-11-19T11:00:11;101147.97;;;8.22;69.54
40612;BME280;26317;44.894;20.286;2023-11-19T11:03:09;101145.56;;;8.21;68.40
40612;BME280;26317;44.894;20.286;2023-11-19T11:05:48;101122.88;;;8.23;67.59
40612;BME280;26317;44.894;20.286;2023-11-19T11:08:39;101106.56;;;8.37;68.25
40612;BME280;26317;44.894;20.286;2023-11-19T11:11:31;101109.34;;;8.42;68.55
40612;BME280;26317;44.894;20.286;2023-11-19T11:14:15;101125.47;;;8.47;67.05
40612;BME280;26317;44.894;20.286;2023-11-19T11:17:00;101113.69;;;8.48;65.64
40612;BME280;26317;44.894;20.286;2023-11-19T11:19:39;101098.47;;;8.48;65.50
40612;BME280;26317;44.894;20.286;2023-11-19T11:22:40;101098.16;;;8.45;65.57
40612;BME280;26317;44.894;20.286;2023-11-19T11:25:45;101091.28;;;8.49;64.75
40612;BME280;26317;44.894;20.286;2023-11-19T11:28:35;101085.19;;;8.53;64.51
40612;BME280;26317;44.894;20.286;2023-11-19T11:31:26;101092.50;;;8.58;64.43
40612;BME280;26317;44.894;20.286;2023-11-19T11:37:28;101090.03;;;8.73;66.01
40612;BME280;26317;44.894;20.286;2023-11-19T11:40:27;101073.91;;;8.85;67.18
40612;BME280;26317;44.894;20.286;2023-11-19T11:49:28;101062.00;;;8.75;66.43
40612;BME280;26317;44.894;20.286;2023-11-19T11:52:12;101057.47;;;8.76;67.63
40612;BME280;26317;44.894;20.286;2023-11-19T11:54:47;101056.66;;;8.75;65.31
40612;BME280;26317;44.894;20.286;2023-11-19T11:57:26;101039.81;;;8.75;65.12
40612;BME280;26317;44.894;20.286;2023-11-19T12:00:23;101039.88;;;8.80;66.79
40612;BME280;26317;44.894;20.286;2023-11-19T12:03:07;101051.41;;;8.81;66.35
40612;BME280;26317;44.894;20.286;2023-11-19T12:05:59;101031.13;;;8.85;65.22
40612;BME280;26317;44.894;20.286;2023-11-19T12:08:41;101031.34;;;8.83;65.86
40612;BME280;26317;44.894;20.286;2023-11-19T12:11:36;101051.75;;;8.89;62.34
40612;BME280;26317;44.894;20.286;2023-11-19T12:14:25;101042.25;;;8.98;63.55
40612;BME280;26317;44.894;20.286;2023-11-19T12:17:46;101047.16;;;9.06;63.71
40612;BME280;26317;44.894;20.286;2023-11-19T12:20:36;101048.28;;;9.10;63.46
40612;BME280;26317;44.894;20.286;2023-11-19T12:23:21;101047.84;;;9.18;63.90
40612;BME280;26317;44.894;20.286;2023-11-19T12:25:59;101037.72;;;9.20;64.02
40612;BME280;26317;44.894;20.286;2023-11-19T12:28:40;101040.47;;;9.26;64.15
40612;BME280;26317;44.894;20.286;2023-11-19T12:31:18;101039.09;;;9.23;65.04
40612;BME280;26317;44.894;20.286;2023-11-19T12:34:12;101031.88;;;9.23;62.31
40612;BME280;26317;44.894;20.286;2023-11-19T12:36:51;101038.34;;;9.28;64.23
40612;BME280;26317;44.894;20.286;2023-11-19T12:39:32;101031.25;;;9.16;62.47
40612;BME280;26317;44.894;20.286;2023-11-19T12:42:08;101033.50;;;9.24;62.06
40612;BME280;26317;44.894;20.286;2023-11-19T12:45:05;101009.97;;;9.27;63.84
40612;BME280;26317;44.894;20.286;2023-11-19T12:47:47;101014.53;;;9.26;61.64
40612;BME280;26317;44.894;20.286;2023-11-19T12:50:50;101016.31;;;9.20;61.60
40612;BME280;26317;44.894;20.286;2023-11-19T12:53:48;101023.47;;;9.15;62.30
40612;BME280;26317;44.894;20.286;2023-11-19T12:56:34;101017.63;;;9.18;60.68
40612;BME280;26317;44.894;20.286;2023-11-19T12:59:19;101010.97;;;9.20;60.43
40612;BME280;26317;44.894;20.286;2023-11-19T13:01:58;100988.44;;;9.16;62.22
40612;BME280;26317;44.894;20.286;2023-11-19T13:04:30;100991.41;;;9.20;63.17
40612;BME280;26317;44.894;20.286;2023-11-19T13:07:06;100986.38;;;9.23;64.83
40612;BME280;26317;44.894;20.286;2023-11-19T13:09:49;100978.41;;;9.29;65.51
40612;BME280;26317;44.894;20.286;2023-11-19T13:12:27;100984.38;;;9.36;65.35
40612;BME280;26317;44.894;20.286;2023-11-19T13:15:04;100974.00;;;9.39;65.83
40612;BME280;26317;44.894;20.286;2023-11-19T13:17:45;100980.13;;;9.40;63.54
40612;BME280;26317;44.894;20.286;2023-11-19T13:20:27;100978.25;;;9.40;64.73
40612;BME280;26317;44.894;20.286;2023-11-19T13:23:09;100965.97;;;9.39;63.55
40612;BME280;26317;44.894;20.286;2023-11-19T13:26:00;100972.09;;;9.40;64.32
40612;BME280;26317;44.894;20.286;2023-11-19T13:28:39;100963.50;;;9.38;63.67
40612;BME280;26317;44.894;20.286;2023-11-19T13:31:16;100964.63;;;9.42;65.02
40612;BME280;26317;44.894;20.286;2023-11-19T13:33:50;100956.03;;;9.40;65.31
40612;BME280;26317;44.894;20.286;2023-11-19T13:36:34;100957.94;;;9.39;65.13
40612;BME280;26317;44.894;20.286;2023-11-19T13:39:16;100965.69;;;9.41;66.24
40612;BME280;26317;44.894;20.286;2023-11-19T13:41:52;100960.84;;;9.38;66.61
40612;BME280;26317;44.894;20.286;2023-11-19T13:44:51;100952.75;;;9.33;66.44
40612;BME280;26317;44.894;20.286;2023-11-19T13:47:30;100957.09;;;9.39;66.60
40612;BME280;26317;44.894;20.286;2023-11-19T13:50:09;100947.47;;;9.38;65.21
40612;BME280;26317;44.894;20.286;2023-11-19T13:53:06;100948.00;;;9.40;64.94
40612;BME280;26317;44.894;20.286;2023-11-19T13:55:43;100953.91;;;9.42;64.94
40612;BME280;26317;44.894;20.286;2023-11-19T13:58:20;100952.88;;;9.43;65.17
40612;BME280;26317;44.894;20.286;2023-11-19T14:00:57;100950.22;;;9.48;64.02
40612;BME280;26317;44.894;20.286;2023-11-19T14:03:36;100948.06;;;9.45;65.12
40612;BME280;26317;44.894;20.286;2023-11-19T14:06:44;100947.53;;;9.48;64.80
40612;BME280;26317;44.894;20.286;2023-11-19T14:09:22;100943.50;;;9.45;64.71
40612;BME280;26317;44.894;20.286;2023-11-19T14:12:08;100941.66;;;9.46;65.15
40612;BME280;26317;44.894;20.286;2023-11-19T14:15:01;100924.72;;;9.40;64.95
40612;BME280;26317;44.894;20.286;2023-11-19T14:17:44;100931.44;;;9.43;65.07
40612;BME280;26317;44.894;20.286;2023-11-19T14:20:23;100938.91;;;9.41;65.57
40612;BME280;26317;44.894;20.286;2023-11-19T14:23:06;100933.25;;;9.37;65.20
40612;BME280;26317;44.894;20.286;2023-11-19T14:25:37;100938.38;;;9.39;65.11